Croydon, Utah
Current Conditions -  °F | °C
As of 1:59 AM on Sunday 21 Dec 2014 (Local Time) from KHIF Reporting Station
Unknown Precip Unknown Precip  
Wind Chill: -1°   Ceiling: 3100
Heat Index:   Visibility: 10mi
Dew Point:   Wind: 16mph
Humidity: 81%   Direction: 180°S
Pressure: 29.99"   Gusts: NA
Location:  41.07°N, 111.51°W
Report Text: KHIF 210859Z AUTO 18014KT 10SM UP BKN031 04/01 A2999 RMK AO2 UPB58
Loading
Personal Weather Stations






























Interactive Weather Map New forecast layout! Learn more

10-Day Weather Forecast

Advertisements
Track Severe Weather on mobile